Time;durP1;ratioP1;P1;durP2;ratioP2;P2;SDS_P1;SDS_P2;PMS_P1;PMS_P2;Temp;Humidity;BMP_temperature;BMP_pressure;BME280_temperature;BME280_humidity;BME280_pressure;Samples;Min_cycle;Max_cycle;Signal;HPM_P1;HPM_P2
2021/09/09 00:01:55;;;;;;;12.82;9.30;;;17.20;99.90;;;;;;6214297;23;20063;-93
2021/09/09 00:04:43;;;;;;;12.07;9.27;;;17.00;99.90;;;;;;6217590;23;20778;-89
2021/09/09 00:07:30;;;;;;;12.90;9.15;;;16.90;99.90;;;;;;6216940;23;20055;-90
2021/09/09 00:10:18;;;;;;;12.68;9.40;;;16.80;99.90;;;;;;6215189;23;20419;-89
2021/09/09 00:13:05;;;;;;;12.07;9.73;;;16.80;99.90;;;;;;6217115;23;20056;-91
2021/09/09 00:15:52;;;;;;;13.75;9.52;;;16.70;99.90;;;;;;6216371;23;20028;-90
2021/09/09 00:18:39;;;;;;;21.33;9.43;;;16.70;99.90;;;;;;6217288;23;20071;-90
2021/09/09 00:21:27;;;;;;;12.15;9.55;;;16.60;99.90;;;;;;6215461;23;20029;-91
2021/09/09 00:24:14;;;;;;;12.88;9.77;;;16.70;99.90;;;;;;6213667;23;20118;-88
2021/09/09 00:27:04;;;;;;;11.13;9.20;;;16.60;99.90;;;;;;6215958;23;20091;-89
2021/09/09 00:29:51;;;;;;;12.13;9.40;;;16.50;99.90;;;;;;6215746;23;20150;-92
2021/09/09 00:32:38;;;;;;;12.38;9.57;;;16.40;99.90;;;;;;6193107;23;20025;-92
2021/09/09 00:35:26;;;;;;;18.85;9.98;;;16.40;99.90;;;;;;6214068;23;20075;-92
2021/09/09 00:38:14;;;;;;;15.60;10.65;;;16.40;99.90;;;;;;6216853;23;20334;-90
2021/09/09 00:41:06;;;;;;;15.68;10.82;;;16.40;99.90;;;;;;6201921;23;20025;-88
2021/09/09 00:43:53;;;;;;;12.40;10.35;;;16.40;99.90;;;;;;6228216;23;20055;-89
2021/09/09 00:46:40;;;;;;;13.77;9.95;;;16.30;99.90;;;;;;6230703;23;20100;-90
2021/09/09 00:49:27;;;;;;;15.32;9.85;;;16.30;99.90;;;;;;6237077;23;20024;-90
2021/09/09 00:52:15;;;;;;;18.20;10.18;;;16.30;99.90;;;;;;6237894;23;20053;-91
2021/09/09 00:55:05;;;;;;;13.48;9.77;;;16.40;99.90;;;;;;6236982;23;20008;-91
2021/09/09 00:57:52;;;;;;;11.95;9.75;;;16.40;99.90;;;;;;6236023;23;20023;-91
2021/09/09 01:00:39;;;;;;;15.00;9.38;;;16.60;99.90;;;;;;6217150;23;20028;-91
2021/09/09 01:03:27;;;;;;;14.95;10.05;;;16.60;99.90;;;;;;6237356;23;20060;-92
2021/09/09 01:06:14;;;;;;;12.60;10.23;;;16.80;99.90;;;;;;6192988;23;20029;-89
2021/09/09 01:09:02;;;;;;;11.85;9.63;;;16.90;99.90;;;;;;6233304;23;20024;-91
2021/09/09 01:11:49;;;;;;;12.25;8.93;;;16.90;99.90;;;;;;6204407;23;20466;-90
2021/09/09 01:14:40;;;;;;;13.75;9.90;;;16.90;99.90;;;;;;6225720;23;20047;-91
2021/09/09 01:17:27;;;;;;;12.25;9.23;;;16.90;99.90;;;;;;6218438;23;20020;-93
2021/09/09 01:20:15;;;;;;;13.30;9.70;;;16.90;99.90;;;;;;6194458;23;20064;-88
2021/09/09 01:23:03;;;;;;;15.05;9.35;;;16.90;99.90;;;;;;6194328;23;20052;-90
2021/09/09 01:25:51;;;;;;;15.10;10.13;;;16.80;99.90;;;;;;6219008;23;20032;-89
2021/09/09 01:28:40;;;;;;;13.93;10.68;;;16.70;99.90;;;;;;6196438;23;20079;-90
2021/09/09 01:31:27;;;;;;;13.50;9.63;;;16.70;99.90;;;;;;6216778;23;20118;-91
2021/09/09 01:34:15;;;;;;;14.80;9.88;;;16.60;99.90;;;;;;6193580;23;20020;-91
2021/09/09 01:37:06;;;;;;;11.50;9.32;;;16.50;99.90;;;;;;6226034;23;20035;-89
2021/09/09 01:39:55;;;;;;;15.90;10.30;;;16.50;99.90;;;;;;6234341;22;20127;-93
2021/09/09 01:42:42;;;;;;;14.52;10.60;;;16.40;99.90;;;;;;6183264;23;20025;-92
2021/09/09 01:45:32;;;;;;;17.08;11.48;;;16.30;99.90;;;;;;6217437;23;20106;-90
2021/09/09 01:48:21;;;;;;;15.17;10.27;;;16.20;99.90;;;;;;6194732;23;20112;-90
2021/09/09 01:51:09;;;;;;;13.75;10.27;;;16.10;99.90;;;;;;6217416;23;20318;-89
2021/09/09 01:53:56;;;;;;;17.55;10.60;;;16.10;99.90;;;;;;6214913;23;20040;-92
2021/09/09 01:56:44;;;;;;;14.50;10.48;;;16.10;99.90;;;;;;6216684;23;20036;-91
2021/09/09 01:59:31;;;;;;;16.73;10.68;;;16.00;99.90;;;;;;6215609;23;20146;-91
2021/09/09 02:02:18;;;;;;;18.20;10.45;;;16.00;99.90;;;;;;6216803;23;20112;-93
2021/09/09 02:05:09;;;;;;;13.68;10.95;;;16.10;99.90;;;;;;6216481;23;20458;-86
2021/09/09 02:07:56;;;;;;;12.88;10.68;;;16.10;99.90;;;;;;6176306;23;20340;-91
2021/09/09 02:10:43;;;;;;;15.73;10.32;;;16.20;99.90;;;;;;6215147;23;20466;-92
2021/09/09 02:13:36;;;;;;;18.23;11.43;;;16.20;99.90;;;;;;6193518;23;20047;-91
2021/09/09 02:16:26;;;;;;;12.57;10.48;;;16.20;99.90;;;;;;6216573;23;20051;-91
2021/09/09 02:19:13;;;;;;;13.93;10.25;;;16.10;99.90;;;;;;6216121;23;20035;-90
2021/09/09 02:22:01;;;;;;;17.17;11.73;;;16.10;99.90;;;;;;6175649;23;20028;-92
2021/09/09 02:24:48;;;;;;;15.88;11.23;;;16.00;99.90;;;;;;6193731;23;20171;-92
2021/09/09 02:27:35;;;;;;;14.40;11.30;;;15.90;99.90;;;;;;6217102;23;20065;-94
2021/09/09 02:30:23;;;;;;;14.98;11.27;;;15.80;99.90;;;;;;6216273;23;20415;-88
2021/09/09 02:33:17;;;;;;;14.30;11.27;;;15.70;99.90;;;;;;6195169;23;20047;-90
2021/09/09 02:36:11;;;;;;;14.07;11.32;;;15.60;99.90;;;;;;6193066;23;20032;-92
2021/09/09 02:39:04;;;;;;;14.23;11.98;;;15.60;99.90;;;;;;6196078;23;20021;-92
2021/09/09 02:41:53;;;;;;;18.58;12.35;;;15.60;99.90;;;;;;6214774;23;20029;-90
2021/09/09 02:44:45;;;;;;;19.15;12.57;;;15.70;99.90;;;;;;6215232;23;20423;-89
2021/09/09 02:47:32;;;;;;;15.48;10.55;;;15.90;99.90;;;;;;6215309;23;20082;-88
2021/09/09 02:50:19;;;;;;;12.85;11.15;;;16.00;99.90;;;;;;6214465;23;20024;-90
2021/09/09 02:53:06;;;;;;;15.85;11.30;;;16.20;99.90;;;;;;6214417;23;20052;-90
2021/09/09 02:55:55;;;;;;;13.90;10.82;;;16.40;99.90;;;;;;6213756;23;20025;-93
2021/09/09 02:58:42;;;;;;;15.65;10.65;;;16.40;99.90;;;;;;6213507;23;20040;-90
2021/09/09 03:01:29;;;;;;;14.38;10.93;;;16.50;99.90;;;;;;6173672;23;20430;-92
2021/09/09 03:04:17;;;;;;;13.95;10.73;;;16.60;99.90;;;;;;6191967;23;20040;-87
2021/09/09 03:07:05;;;;;;;12.38;9.65;;;16.70;99.90;;;;;;6213968;23;20055;-88
2021/09/09 03:09:52;;;;;;;14.38;10.55;;;16.70;99.90;;;;;;6175648;23;20060;-89
2021/09/09 03:12:40;;;;;;;18.75;10.88;;;16.70;99.90;;;;;;6194569;23;20021;-93
2021/09/09 03:15:30;;;;;;;19.15;10.52;;;16.70;99.90;;;;;;6215651;23;20024;-87
2021/09/09 03:18:17;;;;;;;16.92;10.82;;;16.80;99.90;;;;;;6172719;23;20024;-87
2021/09/09 03:21:04;;;;;;;16.38;10.88;;;16.70;99.90;;;;;;6213565;23;20029;-89
2021/09/09 03:23:52;;;;;;;14.45;10.77;;;16.70;99.90;;;;;;6213642;23;20436;-92
2021/09/09 03:26:39;;;;;;;15.52;11.00;;;16.70;99.90;;;;;;6214638;23;20154;-89
2021/09/09 03:29:29;;;;;;;13.50;9.93;;;16.60;99.90;;;;;;6172925;23;20215;-92
2021/09/09 03:32:16;;;;;;;11.98;10.35;;;16.70;99.90;;;;;;6193878;23;20135;-87
2021/09/09 03:35:03;;;;;;;12.45;10.13;;;16.60;99.90;;;;;;6190747;23;20063;-90
2021/09/09 03:37:55;;;;;;;13.23;10.75;;;16.60;99.90;;;;;;6193813;23;20024;-92
2021/09/09 03:40:44;;;;;;;13.90;10.70;;;16.50;99.90;;;;;;6173273;23;20052;-89
2021/09/09 03:43:34;;;;;;;16.60;11.02;;;16.40;99.90;;;;;;6213742;23;20056;-92
2021/09/09 03:46:21;;;;;;;13.85;10.35;;;16.40;99.90;;;;;;6198028;23;20024;-91
2021/09/09 03:49:09;;;;;;;13.73;10.05;;;16.40;99.90;;;;;;6203572;23;20047;-89
2021/09/09 03:51:56;;;;;;;13.02;9.65;;;16.40;99.90;;;;;;6226239;23;20110;-91
2021/09/09 03:54:43;;;;;;;14.43;10.35;;;16.40;99.90;;;;;;6200146;23;20024;-89
2021/09/09 03:57:30;;;;;;;18.88;11.20;;;16.40;99.90;;;;;;6196707;23;20098;-92
2021/09/09 04:00:18;;;;;;;16.13;11.00;;;16.40;99.90;;;;;;6213090;23;20086;-87
2021/09/09 04:03:27;;;;;;;16.60;10.52;;;16.40;99.90;;;;;;6212898;23;20079;-93
2021/09/09 04:06:15;;;;;;;13.43;10.82;;;16.30;99.90;;;;;;6197831;23;20482;-88
2021/09/09 04:09:16;;;;;;;13.55;10.15;;;16.30;99.90;;;;;;6212219;23;20442;-91
2021/09/09 04:12:05;;;;;;;14.80;10.00;;;16.40;99.90;;;;;;6215502;23;20025;-90
2021/09/09 04:40:50;;;;;;;17.58;12.13;;;16.00;99.90;;;;;;6196407;23;20017;-92
2021/09/09 04:43:38;;;;;;;14.93;10.88;;;15.90;99.90;;;;;;6168736;23;20025;-91
2021/09/09 04:46:25;;;;;;;16.25;11.13;;;15.90;99.90;;;;;;6190685;23;20021;-92
2021/09/09 04:49:12;;;;;;;15.95;11.73;;;15.80;99.90;;;;;;6186259;23;20101;-90
2021/09/09 04:52:03;;;;;;;16.08;11.38;;;15.90;99.90;;;;;;6164908;23;20037;-89
2021/09/09 04:54:50;;;;;;;16.13;11.38;;;15.90;99.90;;;;;;6168673;23;20083;-91
2021/09/09 04:57:43;;;;;;;13.75;10.68;;;16.00;99.90;;;;;;6184560;23;20033;-89
2021/09/09 05:00:41;;;;;;;14.88;10.48;;;16.00;99.90;;;;;;6193634;23;20467;-92
2021/09/09 05:03:29;;;;;;;18.08;12.23;;;16.00;99.90;;;;;;6189750;23;20081;-91
2021/09/09 05:06:21;;;;;;;12.63;11.07;;;16.00;99.90;;;;;;6187883;23;20116;-89
2021/09/09 05:09:16;;;;;;;16.15;12.13;;;16.00;99.90;;;;;;6187473;23;20033;-88
2021/09/09 05:12:07;;;;;;;14.60;11.63;;;16.00;99.90;;;;;;6187826;23;20056;-88
2021/09/09 05:15:12;;;;;;;16.92;11.55;;;16.10;99.90;;;;;;6186574;23;20124;-89
2021/09/09 05:18:04;;;;;;;18.80;11.45;;;16.10;99.90;;;;;;6191601;23;20020;-92
2021/09/09 05:20:55;;;;;;;19.67;10.80;;;16.20;99.90;;;;;;6190758;23;20029;-92
2021/09/09 05:23:43;;;;;;;14.65;10.73;;;16.30;99.90;;;;;;6185904;23;20033;-87
2021/09/09 05:34:53;;;;;;;14.40;10.45;;;16.60;99.90;;;;;;6193376;23;20001;-90
2021/09/09 05:37:41;;;;;;;13.45;10.02;;;16.70;99.90;;;;;;6198431;23;20025;-89
2021/09/09 05:40:30;;;;;;;12.60;9.50;;;16.80;99.90;;;;;;6194301;23;20028;-91
2021/09/09 05:43:23;;;;;;;13.82;9.50;;;16.90;99.90;;;;;;6171771;23;20025;-90
2021/09/09 05:46:10;;;;;;;13.35;9.05;;;17.00;99.90;;;;;;6191279;23;20028;-89
2021/09/09 05:49:09;;;;;;;13.32;10.05;;;17.00;99.90;;;;;;6189627;23;20029;-91
2021/09/09 05:51:57;;;;;;;11.63;9.18;;;17.00;99.90;;;;;;6168540;23;20111;-89
2021/09/09 05:54:46;;;;;;;13.18;9.38;;;17.10;99.90;;;;;;6186158;23;20052;-91
2021/09/09 05:57:58;;;;;;;13.65;9.30;;;17.30;99.90;;;;;;6186492;23;20045;-89
2021/09/09 06:00:46;;;;;;;15.32;9.27;;;17.30;99.90;;;;;;6186037;23;20381;-89
2021/09/09 06:03:36;;;;;;;14.70;9.93;;;17.50;99.90;;;;;;6187968;23;20045;-89
2021/09/09 06:06:28;;;;;;;14.77;8.98;;;17.60;99.90;;;;;;6186865;23;20033;-90
2021/09/09 06:09:17;;;;;;;13.90;9.75;;;17.70;99.90;;;;;;6185069;23;20031;-91
2021/09/09 06:12:07;;;;;;;19.38;10.07;;;17.90;99.90;;;;;;6186923;23;20108;-90
2021/09/09 06:14:59;;;;;;;12.15;9.07;;;18.00;99.90;;;;;;6166624;23;20032;-92
2021/09/09 06:17:47;;;;;;;11.98;8.98;;;18.20;99.90;;;;;;6166524;23;20025;-93
2021/09/09 06:20:37;;;;;;;11.60;8.68;;;18.30;99.90;;;;;;6195343;23;20368;-91
2021/09/09 06:23:28;;;;;;;16.13;9.48;;;18.40;99.90;;;;;;6198916;23;20037;-90
2021/09/09 06:26:39;;;;;;;16.65;8.68;;;18.50;99.90;;;;;;6191003;23;20032;-91
2021/09/09 06:29:41;;;;;;;12.13;9.70;;;18.70;99.90;;;;;;6190680;23;20068;-92
2021/09/09 06:32:45;;;;;;;12.15;8.80;;;18.90;99.90;;;;;;6154616;23;20076;-89
2021/09/09 06:36:06;;;;;;;16.25;9.27;;;19.10;99.90;;;;;;6190363;23;20025;-91
2021/09/09 06:43:46;;;;;;;;;;;;;;;;;;;;;
2021/09/09 07:07:30;;;;;;;;;;;;;;;;;;;;;
2021/09/09 07:15:41;;;;;;;;;;;;;;;;;;;;;
2021/09/09 07:19:03;;;;;;;12.45;9.15;;;20.20;99.90;;;;;;5854702;24;20392;-93
2021/09/09 07:21:58;;;;;;;14.10;8.82;;;20.40;99.90;;;;;;5831719;24;20042;-92
2021/09/09 07:28:10;;;;;;;11.15;8.10;;;20.40;99.90;;;;;;5852469;24;20022;-90
2021/09/09 07:31:03;;;;;;;13.75;8.60;;;20.60;99.90;;;;;;5865565;24;20416;-90
2021/09/09 07:34:16;;;;;;;10.13;7.57;;;20.50;99.90;;;;;;5996176;23;20042;-92
2021/09/09 07:37:19;;;;;;;12.75;7.43;;;20.60;99.90;;;;;;6055742;23;20030;-91
2021/09/09 07:40:28;;;;;;;12.50;8.07;;;20.70;99.90;;;;;;6129256;23;20037;-91
2021/09/09 07:43:49;;;;;;;9.77;7.43;;;20.90;99.90;;;;;;6110710;23;20552;-91
2021/09/09 07:46:48;;;;;;;10.98;7.75;;;21.30;99.90;;;;;;6112431;23;20029;-92
2021/09/09 07:49:47;;;;;;;9.75;7.18;;;21.80;99.90;;;;;;6130054;23;20100;-91
2021/09/09 07:52:40;;;;;;;12.38;7.82;;;22.00;99.90;;;;;;6109467;23;20033;-91
2021/09/09 07:55:44;;;;;;;9.90;7.22;;;21.90;99.90;;;;;;6031385;23;20026;-91
2021/09/09 07:58:31;;;;;;;10.02;7.25;;;21.50;99.90;;;;;;6128347;23;20025;-89
2021/09/09 08:01:23;;;;;;;13.48;7.45;;;21.10;99.90;;;;;;6126688;23;20026;-91
2021/09/09 08:04:30;;;;;;;;;;;;;;;;;;;;;
2021/09/09 08:07:54;;;;;;;;;;;;;;;;;;;;;
2021/09/09 08:10:42;;;;;;;12.45;8.40;;;21.10;99.90;;;;;;6143657;23;20026;-91
2021/09/09 08:13:43;;;;;;;10.27;7.35;;;21.10;99.90;;;;;;6123953;23;20026;-91
2021/09/09 08:16:54;;;;;;;11.23;7.50;;;21.30;99.90;;;;;;6143196;23;20018;-89
2021/09/09 08:19:47;;;;;;;10.52;7.05;;;21.60;99.90;;;;;;6143426;23;20025;-90
2021/09/09 08:22:45;;;;;;;11.85;6.80;;;21.90;99.90;;;;;;6141246;23;20030;-91
2021/09/09 08:25:59;;;;;;;8.45;6.57;;;22.60;99.90;;;;;;6142548;23;20026;-91
2021/09/09 08:29:07;;;;;;;15.77;7.03;;;23.40;98.80;;;;;;6126991;23;20050;-90
2021/09/09 08:32:09;;;;;;;12.05;7.45;;;23.70;97.00;;;;;;6138250;23;20061;-91
2021/09/09 08:35:13;;;;;;;8.80;6.85;;;24.00;95.80;;;;;;6048641;23;20024;-91
2021/09/09 08:38:02;;;;;;;15.25;6.80;;;24.40;94.00;;;;;;6046838;23;20027;-92
2021/09/09 08:40:50;;;;;;;10.10;6.82;;;24.80;92.50;;;;;;6046572;23;20731;-91
2021/09/09 08:43:38;;;;;;;7.20;6.45;;;24.90;92.30;;;;;;6045435;23;20463;-90
2021/09/09 08:46:25;;;;;;;10.05;7.55;;;25.30;91.30;;;;;;6045160;23;20098;-92
2021/09/09 08:49:13;;;;;;;9.57;6.97;;;25.60;90.30;;;;;;6047213;23;20031;-92
2021/09/09 08:52:06;;;;;;;12.27;6.95;;;25.90;90.30;;;;;;6046870;23;20074;-89
2021/09/09 08:54:56;;;;;;;11.73;6.57;;;26.30;85.30;;;;;;6041981;23;20102;-91
2021/09/09 08:57:48;;;;;;;11.85;6.35;;;26.00;85.30;;;;;;6026405;23;20031;-90
2021/09/09 09:00:37;;;;;;;10.95;6.78;;;26.00;85.50;;;;;;6041133;23;20031;-93
2021/09/09 09:03:46;;;;;;;15.50;7.07;;;26.40;82.80;;;;;;6022675;23;20125;-95
2021/09/09 09:06:36;;;;;;;10.02;6.25;;;26.70;82.10;;;;;;6040646;23;20511;-92
2021/09/09 09:09:24;;;;;;;8.10;6.45;;;26.70;81.20;;;;;;6042181;23;20106;-92
2021/09/09 09:12:11;;;;;;;8.45;6.80;;;26.60;78.80;;;;;;6088347;23;20022;-91
2021/09/09 09:15:24;;;;;;;10.35;6.43;;;26.70;79.70;;;;;;6128241;23;20053;-93
2021/09/09 09:18:12;;;;;;;8.15;6.88;;;27.00;77.80;;;;;;6130786;23;20030;-90
2021/09/09 09:20:59;;;;;;;11.80;5.72;;;27.30;75.90;;;;;;6132359;23;20026;-93
2021/09/09 09:23:52;;;;;;;9.02;5.88;;;27.10;73.50;;;;;;6131347;23;20034;-92
2021/09/09 09:27:23;;;;;;;9.88;6.10;;;27.00;74.30;;;;;;6110185;23;20085;-92
2021/09/09 09:30:15;;;;;;;8.77;5.50;;;27.50;72.60;;;;;;5983802;23;20036;-93
2021/09/09 09:33:05;;;;;;;9.82;5.88;;;28.30;69.50;;;;;;5968318;24;20092;-92
2021/09/09 09:36:21;;;;;;;9.30;5.70;;;28.10;68.40;;;;;;6120697;23;20396;-92
2021/09/09 09:39:10;;;;;;;8.32;6.20;;;27.70;68.90;;;;;;6131265;23;20102;-91
2021/09/09 09:42:04;;;;;;;8.35;5.68;;;27.50;70.80;;;;;;6135018;23;20081;-92
2021/09/09 09:45:12;;;;;;;7.93;5.43;;;27.40;68.50;;;;;;6138228;23;20030;-92
2021/09/09 09:48:28;;;;;;;6.70;5.22;;;27.10;68.70;;;;;;6140072;23;20026;-90
2021/09/09 09:51:43;;;;;;;7.63;5.20;;;27.60;66.50;;;;;;6136123;23;20068;-92
2021/09/09 09:54:35;;;;;;;5.93;4.15;;;27.60;65.00;;;;;;6136089;23;20042;-93
2021/09/09 09:57:33;;;;;;;6.47;4.53;;;27.90;64.20;;;;;;6136332;23;20057;-91
2021/09/09 10:00:42;;;;;;;5.90;4.68;;;28.60;60.40;;;;;;6137559;23;20397;-91
2021/09/09 10:03:34;;;;;;;6.07;4.65;;;29.60;58.60;;;;;;6128254;23;20053;-93
2021/09/09 10:06:57;;;;;;;8.13;4.57;;;29.60;56.90;;;;;;6128896;23;20021;-91
2021/09/09 10:09:54;;;;;;;9.05;5.18;;;28.00;60.00;;;;;;6111358;23;20049;-92
2021/09/09 10:12:44;;;;;;;5.75;4.60;;;27.30;62.80;;;;;;6128598;23;20036;-91
2021/09/09 10:15:44;;;;;;;6.78;4.63;;;27.70;62.80;;;;;;6139435;23;20013;-89
2021/09/09 10:19:00;;;;;;;7.50;4.00;;;28.70;62.30;;;;;;6140739;23;20048;-92
2021/09/09 10:22:15;;;;;;;7.88;4.13;;;28.30;61.50;;;;;;6129245;23;20026;-91
2021/09/09 10:25:27;;;;;;;5.03;4.43;;;27.80;61.30;;;;;;6131530;23;20437;-91
2021/09/09 10:29:23;;;;;;;5.50;4.15;;;28.20;60.80;;;;;;6128451;23;20129;-91
2021/09/09 10:32:56;;;;;;;8.80;4.80;;;28.70;60.70;;;;;;5989376;23;20020;-93
2021/09/09 10:36:43;;;;;;;;;;;;;;;;;;;;;
2021/09/09 10:40:53;;;;;;;5.23;3.80;;;29.20;58.50;;;;;;5934593;24;20079;-92
2021/09/09 10:48:23;;;;;;;5.72;3.67;;;31.10;53.40;;;;;;5915480;24;20160;-92
2021/09/09 10:51:26;;;;;;;5.30;4.07;;;31.60;52.70;;;;;;5960078;24;20035;-92
2021/09/09 10:55:11;;;;;;;6.45;4.10;;;31.00;52.40;;;;;;5942645;24;20031;-92
2021/09/09 10:58:24;;;;;;;7.50;3.88;;;30.60;53.00;;;;;;5984528;23;20117;-91
2021/09/09 11:01:45;;;;;;;5.30;4.13;;;30.50;52.60;;;;;;6054351;23;20033;-91
2021/09/09 11:04:37;;;;;;;4.65;3.72;;;30.40;54.20;;;;;;6132393;23;20050;-92
2021/09/09 11:07:38;;;;;;;;;;;;;;;;;;;;;
2021/09/09 11:10:54;;;;;;;5.90;4.10;;;29.50;55.70;;;;;;6132520;23;20021;-95
2021/09/09 11:14:35;;;;;;;6.65;4.30;;;30.10;54.10;;;;;;6089073;23;20023;-93
2021/09/09 11:17:34;;;;;;;5.82;4.47;;;29.80;53.90;;;;;;6055445;23;20070;-91
2021/09/09 11:20:47;;;;;;;8.35;4.63;;;30.10;53.70;;;;;;6082970;23;20023;-94
2021/09/09 11:24:40;;;;;;;;;;;;;;;;;;;;;
2021/09/09 11:27:38;;;;;;;7.53;4.32;;;30.10;53.40;;;;;;5956118;24;20095;-91
2021/09/09 11:30:36;;;;;;;10.77;4.22;;;30.40;51.50;;;;;;6019661;23;20026;-92
2021/09/09 11:33:45;;;;;;;6.40;4.50;;;30.20;51.60;;;;;;6083813;23;20042;-92
2021/09/09 11:36:54;;;;;;;4.95;4.20;;;29.40;52.90;;;;;;6103400;23;20058;-90
2021/09/09 11:39:41;;;;;;;5.30;3.72;;;29.40;53.10;;;;;;6102776;23;20130;-90
2021/09/09 11:43:01;;;;;;;5.20;4.40;;;30.70;50.50;;;;;;6132576;23;20029;-92
2021/09/09 11:46:20;;;;;;;9.27;4.90;;;31.00;48.30;;;;;;6116218;23;20030;-93
2021/09/09 11:49:34;;;;;;;6.00;4.72;;;30.60;49.20;;;;;;6104506;23;20122;-93
2021/09/09 11:53:07;;;;;;;5.63;4.20;;;30.30;49.90;;;;;;6081511;23;20017;-93
2021/09/09 11:57:45;;;;;;;6.18;4.50;;;30.80;49.00;;;;;;6134334;23;20054;-93
2021/09/09 12:00:42;;;;;;;;;;;;;;;;;;;;;
2021/09/09 12:04:23;;;;;;;;;;;;;;;;;;;;;
2021/09/09 12:08:35;;;;;;;6.13;4.05;;;31.00;48.10;;;;;;6148461;23;20021;-94
2021/09/09 12:11:52;;;;;;;8.00;4.38;;;31.00;47.60;;;;;;6124100;23;20036;-93
2021/09/09 12:19:09;;;;;;;6.50;4.38;;;30.00;49.60;;;;;;6235195;23;20172;-92
2021/09/09 12:23:07;;;;;;;5.95;4.20;;;30.60;47.60;;;;;;6219210;23;20036;-90
2021/09/09 12:26:44;;;;;;;8.23;5.20;;;29.60;48.50;;;;;;6200487;23;20076;-92
2021/09/09 12:29:55;;;;;;;5.22;4.32;;;29.60;48.80;;;;;;6230049;23;20025;-91
2021/09/09 12:33:03;;;;;;;7.75;4.28;;;29.90;48.70;;;;;;6224359;23;20108;-91
2021/09/09 12:36:23;;;;;;;15.55;4.47;;;30.00;49.10;;;;;;6222254;23;20078;-93
2021/09/09 12:40:04;;;;;;;5.30;4.18;;;30.80;48.40;;;;;;6221548;23;20021;-93
2021/09/09 12:43:28;;;;;;;6.68;4.40;;;31.90;44.90;;;;;;6129766;23;20025;-92
2021/09/09 12:50:49;;;;;;;;;;;;;;;;;;;;;
2021/09/09 12:54:02;;;;;;;4.38;3.85;;;33.00;44.00;;;;;;6018967;23;20063;-91
2021/09/09 12:57:56;;;;;;;8.00;4.10;;;32.30;43.80;;;;;;6074683;23;20030;-92
2021/09/09 13:00:59;;;;;;;;;;;31.50;46.20;;;;;;6074009;23;20090;-91
2021/09/09 13:04:15;;;;;;;10.18;4.53;;;31.40;46.80;;;;;;6076710;23;19928;-92
2021/09/09 13:07:27;;;;;;;4.18;3.72;;;31.20;46.70;;;;;;5974066;24;20039;-92
2021/09/09 13:11:06;;;;;;;6.15;3.88;;;31.40;46.20;;;;;;5973618;24;20056;-93
2021/09/09 13:15:02;;;;;;;7.15;3.47;;;31.90;44.00;;;;;;6037696;23;20074;-94
2021/09/09 13:17:52;;;;;;;3.60;3.10;;;32.50;41.90;;;;;;5988612;23;20045;-92
2021/09/09 13:20:59;;;;;;;;;;;;;;;;;;;;;
2021/09/09 13:24:49;;;;;;;6.97;3.45;;;31.80;43.60;;;;;;6107756;23;20030;-92
2021/09/09 13:27:39;;;;;;;5.13;3.65;;;32.10;43.60;;;;;;6042281;23;20030;-92
2021/09/09 13:35:18;;;;;;;6.45;4.05;;;33.20;41.30;;;;;;6109859;23;20117;-93
2021/09/09 13:38:20;;;;;;;5.30;3.40;;;33.20;39.90;;;;;;6227261;23;20024;-94
2021/09/09 13:41:42;;;;;;;;;;;;;;;;;;;;;
2021/09/09 13:44:39;;;;;;;7.03;3.60;;;32.40;40.00;;;;;;6225749;23;20075;-93
2021/09/09 13:51:07;;;;;;;8.98;3.65;;;32.20;41.30;;;;;;6229779;23;20127;-93
2021/09/09 13:54:10;;;;;;;10.32;3.47;;;33.00;39.80;;;;;;6228132;23;20020;-92
2021/09/09 13:57:06;;;;;;;7.70;4.13;;;33.50;38.60;;;;;;6228748;23;20396;-93
2021/09/09 14:00:30;;;;;;;5.13;3.53;;;33.30;38.50;;;;;;6209055;23;20021;-92
2021/09/09 14:03:20;;;;;;;8.27;3.90;;;32.70;39.50;;;;;;6226131;23;20028;-92
2021/09/09 14:06:39;;;;;;;7.28;4.05;;;33.30;41.10;;;;;;6209270;23;20024;-94
2021/09/09 14:09:59;;;;;;;4.72;3.40;;;33.70;38.60;;;;;;6225914;23;20094;-93
2021/09/09 14:12:52;;;;;;;6.03;3.38;;;34.30;39.20;;;;;;6227722;23;20020;-91
2021/09/09 14:16:17;;;;;;;3.85;3.45;;;35.10;37.20;;;;;;6208655;23;20020;-92
2021/09/09 14:19:41;;;;;;;5.18;3.25;;;35.40;36.80;;;;;;6229245;22;20333;-92
2021/09/09 14:22:44;;;;;;;3.75;3.35;;;35.20;36.50;;;;;;6229890;23;20027;-91
2021/09/09 14:26:05;;;;;;;5.68;3.53;;;33.80;35.50;;;;;;6210972;23;20331;-92
2021/09/09 14:29:31;;;;;;;6.22;3.53;;;32.70;37.40;;;;;;6109209;23;20031;-93
2021/09/09 14:37:07;;;;;;;;;;;;;;;;;;;;;
2021/09/09 14:40:19;;;;;;;5.75;3.92;;;31.30;38.90;;;;;;6112171;23;20053;-92
2021/09/09 14:43:45;;;;;;;;;;;;;;;;;;;;;
2021/09/09 14:47:01;;;;;;;;;;;;;;;;;;;;;
2021/09/09 14:57:40;;;;;;;13.57;4.78;;;31.70;43.60;;;;;;6137537;23;20030;-92
2021/09/09 15:00:37;;;;;;;10.85;4.55;;;32.00;42.40;;;;;;6231054;23;20076;-92
2021/09/09 15:03:39;;;;;;;7.55;4.40;;;31.40;43.50;;;;;;6199919;23;20034;-90
2021/09/09 15:09:55;;;;;;;7.15;4.20;;;31.00;43.40;;;;;;6210211;23;20025;-92
2021/09/09 15:12:50;;;;;;;7.45;4.38;;;31.20;43.30;;;;;;6185296;23;20027;-91
2021/09/09 15:15:44;;;;;;;7.28;4.88;;;30.50;43.00;;;;;;6183289;23;20078;-91
2021/09/09 15:18:41;;;;;;;7.40;4.53;;;30.50;44.00;;;;;;6223532;23;20080;-92
2021/09/09 15:21:32;;;;;;;6.82;4.38;;;30.80;43.30;;;;;;6224175;23;20025;-92
2021/09/09 15:24:30;;;;;;;8.30;4.30;;;30.90;43.90;;;;;;6224665;23;20028;-93
2021/09/09 15:27:19;;;;;;;4.88;3.80;;;31.70;42.50;;;;;;6202421;23;20024;-92
2021/09/09 15:30:22;;;;;;;6.43;3.83;;;32.10;41.70;;;;;;6203255;23;20025;-92
2021/09/09 15:33:16;;;;;;;7.10;3.55;;;31.80;41.10;;;;;;6224468;23;20418;-92
2021/09/09 15:36:25;;;;;;;7.30;4.10;;;30.90;41.30;;;;;;6206568;23;20028;-90
2021/09/09 15:39:13;;;;;;;5.65;3.70;;;29.50;44.10;;;;;;6223724;23;20032;-93
2021/09/09 15:42:16;;;;;;;4.95;3.70;;;28.00;46.70;;;;;;6224490;23;20033;-90
2021/09/09 15:45:26;;;;;;;4.15;3.70;;;27.30;48.50;;;;;;6219767;23;20099;-92
2021/09/09 15:48:13;;;;;;;9.65;4.50;;;27.70;48.60;;;;;;6218417;23;20498;-93
2021/09/09 15:51:03;;;;;;;12.80;8.18;;;27.80;47.20;;;;;;6201213;23;20021;-89
2021/09/09 15:53:50;;;;;;;7.60;4.05;;;27.30;48.80;;;;;;6216763;23;20032;-89
2021/09/09 15:56:39;;;;;;;6.32;4.75;;;26.90;49.90;;;;;;6219372;23;20024;-93
2021/09/09 15:59:27;;;;;;;9.73;4.55;;;26.50;50.40;;;;;;6198641;23;20090;-92
2021/09/09 16:02:19;;;;;;;6.15;4.70;;;26.10;51.10;;;;;;6218783;23;20020;-91
2021/09/09 16:05:12;;;;;;;5.57;4.25;;;25.60;52.70;;;;;;6220946;23;20455;-90
2021/09/09 16:07:59;;;;;;;5.57;4.75;;;25.40;52.90;;;;;;6225645;23;20021;-91
2021/09/09 16:10:59;;;;;;;7.53;3.75;;;25.50;52.20;;;;;;6235481;23;20028;-93
2021/09/09 16:14:15;;;;;;;7.70;4.53;;;25.10;53.20;;;;;;6208314;23;20124;-93
2021/09/09 16:17:28;;;;;;;9.30;4.32;;;24.60;54.70;;;;;;6215802;23;20328;-90
2021/09/09 16:20:24;;;;;;;5.88;4.35;;;24.80;55.40;;;;;;6217191;23;20020;-93
2021/09/09 16:23:14;;;;;;;6.63;4.50;;;25.00;55.40;;;;;;6217800;23;20107;-91
2021/09/09 16:26:19;;;;;;;12.15;4.60;;;24.90;55.50;;;;;;6217602;23;20028;-92
2021/09/09 16:29:07;;;;;;;7.00;4.47;;;24.60;55.30;;;;;;6217793;23;20025;-91
2021/09/09 16:32:01;;;;;;;6.68;4.30;;;24.30;56.20;;;;;;6197035;23;20113;-90
2021/09/09 16:34:52;;;;;;;8.60;4.47;;;24.10;56.40;;;;;;6218992;23;20035;-93
2021/09/09 16:37:42;;;;;;;5.97;4.35;;;24.00;57.30;;;;;;6224595;23;20076;-94
2021/09/09 16:40:30;;;;;;;11.35;5.30;;;23.90;57.50;;;;;;6235713;23;20040;-90
2021/09/09 16:43:24;;;;;;;14.25;4.82;;;23.80;58.40;;;;;;6239467;23;20079;-91
2021/09/09 16:49:24;;;;;;;12.90;5.00;;;23.60;58.90;;;;;;6220053;23;20400;-92
2021/09/09 16:56:24;;;;;;;7.88;4.50;;;23.40;59.60;;;;;;6141280;23;20026;-93
2021/09/09 16:59:28;;;;;;;7.05;4.88;;;23.40;59.80;;;;;;6153094;23;20032;-93
2021/09/09 17:02:34;;;;;;;10.07;6.00;;;23.20;60.80;;;;;;6221590;23;20038;-93
2021/09/09 17:05:49;;;;;;;9.48;5.05;;;23.10;60.80;;;;;;6218826;23;20108;-94
2021/09/09 17:08:59;;;;;;;13.00;5.00;;;23.00;61.50;;;;;;6220533;23;20039;-90
2021/09/09 17:15:37;;;;;;;8.80;5.05;;;22.70;63.00;;;;;;6202675;23;20021;-93
2021/09/09 17:18:27;;;;;;;12.32;5.50;;;22.60;64.20;;;;;;6224633;23;20107;-91
2021/09/09 17:21:17;;;;;;;6.97;5.35;;;22.50;65.70;;;;;;6200862;23;20087;-90
2021/09/09 17:24:07;;;;;;;8.52;5.10;;;22.40;65.80;;;;;;6207228;23;20044;-90
2021/09/09 17:26:56;;;;;;;8.73;5.53;;;22.30;67.10;;;;;;6230574;23;20025;-91
2021/09/09 17:29:43;;;;;;;11.57;5.65;;;22.20;68.40;;;;;;6232983;22;20026;-90
2021/09/09 17:32:33;;;;;;;9.00;5.30;;;22.10;68.70;;;;;;6230494;23;20024;-91
2021/09/09 17:35:21;;;;;;;9.93;5.93;;;22.00;70.00;;;;;;6211302;23;20020;-91
2021/09/09 17:38:09;;;;;;;10.90;6.15;;;22.00;70.80;;;;;;6209425;23;20058;-90
2021/09/09 17:40:56;;;;;;;9.80;5.78;;;21.90;71.60;;;;;;6220576;23;20036;-92
2021/09/09 17:44:01;;;;;;;7.22;5.30;;;21.90;71.20;;;;;;6219077;23;20060;-92